createdAt,value
2023-05-22T00:00:03.182Z,24.25
2023-05-22T00:01:03.238Z,24.27
2023-05-22T00:02:03.313Z,24.23
2023-05-22T00:03:03.435Z,24.25
2023-05-22T00:04:03.414Z,24.23
2023-05-22T00:05:03.504Z,24.23
2023-05-22T00:06:03.513Z,24.27
2023-05-22T00:07:03.586Z,24.25
2023-05-22T00:08:03.628Z,24.24
2023-05-22T00:09:03.691Z,24.24
2023-05-22T00:10:03.748Z,24.24
2023-05-22T00:11:03.815Z,24.23
2023-05-22T00:12:03.865Z,24.25
2023-05-22T00:13:03.929Z,24.24
2023-05-22T00:14:03.994Z,24.23
2023-05-22T00:15:04.052Z,24.24
2023-05-22T00:16:04.099Z,24.27
2023-05-22T00:17:04.203Z,24.23
2023-05-22T00:18:04.227Z,24.21
2023-05-22T00:19:04.349Z,24.21
2023-05-22T00:20:04.338Z,24.23
2023-05-22T00:21:04.398Z,24.21
2023-05-22T00:22:04.393Z,24.23
2023-05-22T00:23:04.395Z,24.23
2023-05-22T00:24:04.393Z,24.23
2023-05-22T00:25:04.386Z,24.21
2023-05-22T00:26:04.375Z,24.20
2023-05-22T00:27:04.349Z,24.21
2023-05-22T00:28:04.333Z,24.23
2023-05-22T00:29:04.345Z,24.21
2023-05-22T00:30:04.329Z,24.23
2023-05-22T00:31:04.306Z,24.20
2023-05-22T00:32:04.292Z,24.17
2023-05-22T00:33:04.313Z,24.21
2023-05-22T00:34:04.283Z,24.19
2023-05-22T00:35:04.262Z,24.21
2023-05-22T00:36:04.324Z,24.20
2023-05-22T00:37:04.387Z,24.20
2023-05-22T00:38:04.435Z,24.19
2023-05-22T00:39:04.498Z,24.20
2023-05-22T00:40:04.557Z,24.19
2023-05-22T00:41:04.626Z,24.19
2023-05-22T00:42:04.713Z,24.20
2023-05-22T00:43:04.755Z,24.19
2023-05-22T00:44:04.820Z,24.19
2023-05-22T00:45:04.893Z,24.19
2023-05-22T00:46:04.972Z,24.20
2023-05-22T00:47:05.019Z,24.17
2023-05-22T00:48:05.085Z,24.17
2023-05-22T00:49:05.137Z,24.19
2023-05-22T00:50:05.209Z,24.19
2023-05-22T00:51:05.254Z,24.17
2023-05-22T00:52:05.329Z,24.16
2023-05-22T00:53:05.378Z,24.17
2023-05-22T00:54:05.443Z,24.17
2023-05-22T00:55:05.506Z,24.19
2023-05-22T00:56:05.562Z,24.16
2023-05-22T00:57:05.657Z,24.17
2023-05-22T00:58:05.694Z,24.17
2023-05-22T00:59:05.749Z,24.16
2023-05-22T01:00:05.838Z,24.16
2023-05-22T01:01:05.877Z,24.16
2023-05-22T01:02:06.008Z,24.16
2023-05-22T01:03:06.072Z,24.16
2023-05-22T01:04:06.082Z,24.17
2023-05-22T01:05:06.130Z,24.16
2023-05-22T01:06:06.194Z,24.17
2023-05-22T01:07:06.276Z,24.16
2023-05-22T01:08:06.356Z,24.17
2023-05-22T01:09:06.422Z,24.14
2023-05-22T01:10:06.468Z,24.14
2023-05-22T01:11:06.521Z,24.14
2023-05-22T01:12:06.612Z,24.16
2023-05-22T01:13:06.656Z,24.14
2023-05-22T01:14:06.739Z,24.11
2023-05-22T01:15:06.789Z,24.14
2023-05-22T01:16:06.881Z,24.14
2023-05-22T01:17:06.915Z,24.16
2023-05-22T01:18:07.038Z,24.13
2023-05-22T01:19:07.086Z,24.14
2023-05-22T01:20:07.202Z,24.13
2023-05-22T01:21:07.176Z,24.14
2023-05-22T01:22:07.244Z,24.14
2023-05-22T01:23:07.312Z,24.11
2023-05-22T01:24:07.366Z,24.13
2023-05-22T01:25:07.455Z,24.11
2023-05-22T01:26:07.539Z,24.11
2023-05-22T01:27:07.556Z,24.11
2023-05-22T01:28:07.620Z,24.13
2023-05-22T01:29:07.680Z,24.14
2023-05-22T01:30:07.741Z,24.11
2023-05-22T01:31:07.809Z,24.13
2023-05-22T01:32:07.902Z,24.10
2023-05-22T01:33:08.050Z,24.11
2023-05-22T01:34:08.041Z,24.09
2023-05-22T01:35:08.060Z,24.13
2023-05-22T01:36:08.129Z,24.09
2023-05-22T01:37:08.215Z,24.09
2023-05-22T01:38:08.239Z,24.13
2023-05-22T01:39:08.291Z,24.10
2023-05-22T01:40:08.372Z,24.10
2023-05-22T01:41:08.413Z,24.10
2023-05-22T01:42:08.484Z,24.11
2023-05-22T01:43:08.561Z,24.10
2023-05-22T01:44:08.598Z,24.07
2023-05-22T01:45:08.659Z,24.10
2023-05-22T01:46:08.808Z,24.11
2023-05-22T01:47:08.725Z,24.10
2023-05-22T01:48:08.780Z,24.09
2023-05-22T01:49:08.715Z,24.09
2023-05-22T01:50:08.736Z,24.10
2023-05-22T01:51:08.712Z,24.09
2023-05-22T01:52:08.701Z,24.09
2023-05-22T01:53:08.693Z,24.09
2023-05-22T01:54:08.715Z,24.09
2023-05-22T01:55:08.784Z,24.10
2023-05-22T01:56:08.848Z,24.10
2023-05-22T01:57:08.835Z,24.09
2023-05-22T01:58:08.827Z,24.09
2023-05-22T01:59:08.823Z,24.10
2023-05-22T02:00:08.820Z,24.07
2023-05-22T02:01:09.281Z,24.07
2023-05-22T02:02:08.884Z,24.07
2023-05-22T02:03:08.948Z,24.07
2023-05-22T02:04:08.835Z,24.06
2023-05-22T02:05:08.884Z,24.04
2023-05-22T02:06:08.995Z,24.07
2023-05-22T02:07:12.001Z,24.07
2023-05-22T02:08:09.026Z,24.07
2023-05-22T02:09:09.024Z,24.06
2023-05-22T02:10:09.018Z,24.04
2023-05-22T02:11:09.014Z,24.06
2023-05-22T02:12:09.019Z,24.06
2023-05-22T02:13:09.002Z,24.06
2023-05-22T02:14:09.021Z,24.06
2023-05-22T02:15:09.000Z,24.06
2023-05-22T02:16:09.026Z,24.06
2023-05-22T02:17:08.992Z,24.04
2023-05-22T02:18:09.053Z,24.06
2023-05-22T02:19:09.019Z,24.04
2023-05-22T02:20:08.974Z,24.04
2023-05-22T02:21:08.982Z,24.04
2023-05-22T02:22:08.978Z,24.06
2023-05-22T02:23:08.958Z,24.04
2023-05-22T02:24:08.964Z,24.04
2023-05-22T02:25:08.947Z,24.04
2023-05-22T02:26:08.945Z,24.04
2023-05-22T02:27:08.949Z,24.00
2023-05-22T02:28:08.937Z,24.03
2023-05-22T02:29:08.935Z,24.03
2023-05-22T02:30:08.927Z,24.04
2023-05-22T02:31:09.041Z,24.03
2023-05-22T02:32:08.932Z,24.03
2023-05-22T02:33:08.957Z,24.03
2023-05-22T02:34:08.917Z,24.03
2023-05-22T02:35:08.901Z,24.04
2023-05-22T02:36:08.898Z,24.03
2023-05-22T02:37:08.896Z,24.04
2023-05-22T02:38:08.895Z,24.00
2023-05-22T02:39:08.904Z,24.03
2023-05-22T02:40:08.891Z,24.02
2023-05-22T02:41:08.871Z,24.03
2023-05-22T02:42:08.879Z,24.03
2023-05-22T02:43:08.855Z,24.02
2023-05-22T02:44:08.879Z,24.00
2023-05-22T02:45:08.865Z,24.04
2023-05-22T02:46:08.895Z,24.03
2023-05-22T02:47:08.861Z,24.00
2023-05-22T02:48:08.905Z,24.02
2023-05-22T02:49:08.850Z,23.99
2023-05-22T02:50:08.886Z,23.99
2023-05-22T02:51:08.954Z,24.00
2023-05-22T02:52:09.024Z,23.97
2023-05-22T02:53:09.080Z,24.00
2023-05-22T02:54:09.132Z,23.97
2023-05-22T02:55:09.183Z,23.99
2023-05-22T02:56:09.235Z,23.97
2023-05-22T02:57:09.318Z,24.00
2023-05-22T02:58:09.375Z,24.00
2023-05-22T02:59:09.435Z,23.99
2023-05-22T03:00:09.489Z,24.00
2023-05-22T03:01:09.528Z,24.00
2023-05-22T03:02:09.833Z,24.00
2023-05-22T03:03:09.680Z,24.02
2023-05-22T03:04:09.668Z,23.97
2023-05-22T03:05:09.635Z,23.99
2023-05-22T03:06:09.650Z,23.97
2023-05-22T03:07:09.632Z,24.00
2023-05-22T03:08:09.643Z,23.99
2023-05-22T03:09:09.632Z,23.99
2023-05-22T03:10:09.638Z,23.97
2023-05-22T03:11:09.631Z,23.97
2023-05-22T03:12:09.635Z,23.95
2023-05-22T03:13:09.650Z,23.96
2023-05-22T03:14:09.640Z,23.96
2023-05-22T03:15:09.675Z,23.97
2023-05-22T03:16:09.729Z,23.97
2023-05-22T03:17:09.795Z,23.97
2023-05-22T03:18:09.866Z,23.97
2023-05-22T03:19:09.915Z,23.99
2023-05-22T03:20:09.952Z,23.96
2023-05-22T03:21:09.970Z,23.96
2023-05-22T03:22:09.992Z,23.96
2023-05-22T03:23:09.975Z,23.96
2023-05-22T03:24:09.979Z,23.96
2023-05-22T03:25:09.974Z,23.95
2023-05-22T03:26:09.976Z,23.99
2023-05-22T03:27:09.964Z,23.96
2023-05-22T03:28:10.003Z,23.95
2023-05-22T03:29:10.091Z,23.96
2023-05-22T03:30:09.971Z,23.97
2023-05-22T03:31:09.968Z,23.96
2023-05-22T03:32:09.973Z,23.92
2023-05-22T03:33:10.122Z,23.96
2023-05-22T03:34:10.002Z,23.96
2023-05-22T03:35:09.951Z,23.95
2023-05-22T03:36:09.978Z,23.96
2023-05-22T03:37:10.042Z,23.96
2023-05-22T03:38:10.065Z,23.96
2023-05-22T03:39:10.108Z,23.95
2023-05-22T03:40:10.145Z,23.95
2023-05-22T03:41:10.191Z,23.93
2023-05-22T03:42:10.253Z,23.93
2023-05-22T03:43:10.290Z,23.92
2023-05-22T03:44:10.318Z,23.95
2023-05-22T03:45:10.515Z,23.95
2023-05-22T03:46:10.453Z,23.95
2023-05-22T03:47:10.464Z,23.95
2023-05-22T03:48:10.635Z,23.92
2023-05-22T03:49:10.513Z,23.96
2023-05-22T03:50:10.510Z,23.96
2023-05-22T03:51:10.499Z,23.95
2023-05-22T03:52:10.519Z,23.95
2023-05-22T03:53:10.525Z,23.92
2023-05-22T03:54:10.509Z,23.93
2023-05-22T03:55:10.514Z,23.93
2023-05-22T03:56:10.510Z,23.93
2023-05-22T03:57:10.506Z,23.93
2023-05-22T03:58:10.529Z,23.93
2023-05-22T03:59:10.509Z,23.93
2023-05-22T04:00:10.506Z,23.95
2023-05-22T04:01:10.529Z,23.93
2023-05-22T04:02:10.566Z,23.92
2023-05-22T04:03:10.577Z,23.90
2023-05-22T04:04:10.568Z,23.92
2023-05-22T04:05:10.666Z,23.92
2023-05-22T04:06:10.617Z,23.92
2023-05-22T04:07:10.657Z,23.92
2023-05-22T04:08:10.677Z,23.90
2023-05-22T04:09:10.711Z,23.90
2023-05-22T04:10:10.697Z,23.90
2023-05-22T04:11:10.700Z,23.93
2023-05-22T04:12:10.705Z,23.92
2023-05-22T04:13:10.703Z,23.90
2023-05-22T04:14:10.750Z,23.89
2023-05-22T04:15:10.771Z,23.92
2023-05-22T04:16:10.962Z,23.92
2023-05-22T04:17:10.818Z,23.90
2023-05-22T04:18:10.976Z,23.87
2023-05-22T04:19:10.868Z,23.92
2023-05-22T04:20:10.858Z,23.92
2023-05-22T04:21:10.888Z,23.90
2023-05-22T04:22:10.996Z,23.92
2023-05-22T04:23:11.052Z,23.90
2023-05-22T04:24:11.016Z,23.89
2023-05-22T04:25:11.029Z,23.89
2023-05-22T04:26:11.074Z,23.90
2023-05-22T04:27:11.116Z,23.90
2023-05-22T04:28:11.140Z,23.90
2023-05-22T04:29:11.124Z,23.86
2023-05-22T04:30:11.172Z,23.90
2023-05-22T04:31:11.280Z,23.89
2023-05-22T04:32:11.277Z,23.89
2023-05-22T04:33:11.372Z,23.90
2023-05-22T04:34:11.298Z,23.89
2023-05-22T04:35:11.306Z,23.92
2023-05-22T04:36:12.498Z,23.90
2023-05-22T04:37:11.323Z,23.90
2023-05-22T04:38:11.348Z,23.89
2023-05-22T04:39:11.338Z,23.89
2023-05-22T04:40:11.415Z,23.92
2023-05-22T04:41:11.364Z,23.89
2023-05-22T04:42:11.375Z,23.90
2023-05-22T04:43:11.394Z,23.89
2023-05-22T04:44:11.369Z,23.89
2023-05-22T04:45:11.380Z,23.86
2023-05-22T04:46:11.417Z,23.89
2023-05-22T04:47:11.532Z,23.87
2023-05-22T04:48:11.398Z,23.87
2023-05-22T04:49:11.426Z,23.87
2023-05-22T04:50:11.393Z,23.90
2023-05-22T04:51:11.402Z,23.90
2023-05-22T04:52:11.404Z,23.87
2023-05-22T04:53:11.416Z,23.87
2023-05-22T04:54:11.399Z,23.87
2023-05-22T04:55:11.422Z,23.90
2023-05-22T04:56:13.073Z,23.87
2023-05-22T04:57:11.412Z,23.87
2023-05-22T04:58:11.400Z,23.90
2023-05-22T04:59:11.426Z,23.87
2023-05-22T05:00:11.406Z,23.89
2023-05-22T05:01:11.442Z,23.87
2023-05-22T05:02:11.404Z,23.89
2023-05-22T05:03:11.524Z,23.92
2023-05-22T05:04:11.437Z,23.87
2023-05-22T05:05:11.405Z,23.89
2023-05-22T05:06:11.408Z,23.87
2023-05-22T05:07:11.409Z,23.87
2023-05-22T05:08:11.410Z,23.86
2023-05-22T05:09:11.400Z,23.89
2023-05-22T05:10:11.414Z,23.87
2023-05-22T05:11:11.394Z,23.86
2023-05-22T05:12:11.401Z,23.86
2023-05-22T05:13:11.442Z,23.86
2023-05-22T05:14:11.386Z,23.87
2023-05-22T05:15:11.420Z,23.87
2023-05-22T05:16:11.440Z,23.87
2023-05-22T05:17:11.414Z,23.86
2023-05-22T05:18:11.461Z,23.89
2023-05-22T05:19:11.421Z,23.87
2023-05-22T05:20:11.389Z,23.87
2023-05-22T05:21:11.394Z,23.89
2023-05-22T05:22:11.392Z,23.89
2023-05-22T05:23:11.398Z,23.89
2023-05-22T05:24:11.368Z,23.87
2023-05-22T05:25:11.904Z,23.89
2023-05-22T05:26:11.377Z,23.86
2023-05-22T05:27:11.377Z,23.90
2023-05-22T05:28:11.390Z,23.87
2023-05-22T05:29:11.389Z,23.92
2023-05-22T05:30:11.342Z,23.87
2023-05-22T05:31:11.366Z,23.87
2023-05-22T05:32:11.505Z,23.87
2023-05-22T05:33:11.385Z,23.89
2023-05-22T05:34:13.946Z,23.90
2023-05-22T05:35:11.560Z,23.90
2023-05-22T05:36:11.566Z,23.90
2023-05-22T05:37:11.597Z,23.93
2023-05-22T05:38:11.637Z,23.95
2023-05-22T05:39:11.668Z,23.93
2023-05-22T05:40:11.718Z,23.96
2023-05-22T05:41:11.705Z,23.97
2023-05-22T05:42:11.806Z,24.00
2023-05-22T05:43:11.888Z,23.99
2023-05-22T05:44:11.749Z,24.02
2023-05-22T05:45:11.744Z,24.04
2023-05-22T05:46:11.919Z,24.07
2023-05-22T05:47:11.715Z,24.10
2023-05-22T05:48:11.843Z,24.10
2023-05-22T05:49:11.777Z,24.13
2023-05-22T05:50:11.905Z,24.16
2023-05-22T05:51:11.724Z,24.17
2023-05-22T05:52:11.732Z,24.20
2023-05-22T05:53:11.742Z,24.25
2023-05-22T05:54:11.811Z,24.25
2023-05-22T05:55:11.692Z,24.27
2023-05-22T05:56:11.688Z,24.30
2023-05-22T05:57:11.668Z,24.32
2023-05-22T05:58:11.693Z,24.32
2023-05-22T05:59:11.787Z,24.37
2023-05-22T06:00:11.739Z,24.38
2023-05-22T06:01:11.752Z,24.38
2023-05-22T06:02:11.845Z,24.38
2023-05-22T06:03:11.972Z,24.39
2023-05-22T06:04:11.921Z,24.42
2023-05-22T06:05:12.036Z,24.39
2023-05-22T06:06:12.026Z,24.44
2023-05-22T06:07:12.092Z,24.44
2023-05-22T06:08:12.304Z,24.44
2023-05-22T06:09:12.172Z,24.48
2023-05-22T06:10:12.226Z,24.48
2023-05-22T06:11:12.281Z,24.50
2023-05-22T06:12:12.369Z,24.50
2023-05-22T06:13:12.373Z,24.51
2023-05-22T06:14:12.406Z,24.51
2023-05-22T06:15:12.499Z,24.51
2023-05-22T06:16:12.542Z,24.54
2023-05-22T06:17:12.550Z,24.54
2023-05-22T06:18:12.626Z,24.55
2023-05-22T06:19:12.738Z,24.56
2023-05-22T06:20:12.617Z,24.58
2023-05-22T06:21:12.640Z,24.58
2023-05-22T06:22:12.602Z,24.59
2023-05-22T06:23:12.600Z,24.61
2023-05-22T06:24:12.593Z,24.63
2023-05-22T06:25:12.619Z,24.63
2023-05-22T06:26:12.562Z,24.63
2023-05-22T06:27:12.573Z,24.65
2023-05-22T06:28:12.990Z,24.66
2023-05-22T06:29:12.561Z,24.66
2023-05-22T06:30:12.545Z,24.68
2023-05-22T06:31:12.538Z,24.66
2023-05-22T06:32:12.584Z,24.66
2023-05-22T06:33:12.960Z,24.71
2023-05-22T06:34:12.696Z,24.71
2023-05-22T06:35:12.681Z,24.71
2023-05-22T06:36:12.688Z,24.75
2023-05-22T06:37:12.720Z,24.73
2023-05-22T06:38:12.744Z,24.75
2023-05-22T06:39:12.763Z,24.73
2023-05-22T06:40:12.794Z,24.75
2023-05-22T06:41:12.838Z,24.76
2023-05-22T06:42:12.830Z,24.80
2023-05-22T06:43:12.841Z,24.86
2023-05-22T06:44:12.881Z,24.86
2023-05-22T06:45:12.870Z,24.87
2023-05-22T06:46:12.887Z,24.90
2023-05-22T06:47:12.906Z,24.91
2023-05-22T06:48:12.927Z,24.94
2023-05-22T06:49:12.945Z,24.93
2023-05-22T06:50:12.949Z,24.96
2023-05-22T06:51:12.984Z,24.97
2023-05-22T06:52:12.974Z,24.98
2023-05-22T06:53:12.959Z,25.00
2023-05-22T06:54:12.957Z,25.02
2023-05-22T06:55:12.923Z,25.03
2023-05-22T06:56:12.933Z,25.04
2023-05-22T06:57:12.927Z,25.04
2023-05-22T06:58:12.897Z,25.06
2023-05-22T06:59:12.896Z,25.07
2023-05-22T07:00:12.952Z,25.09
2023-05-22T07:01:12.874Z,25.11
2023-05-22T07:02:12.854Z,25.09
2023-05-22T07:03:12.935Z,25.10
2023-05-22T07:04:12.871Z,25.10
2023-05-22T07:05:12.834Z,25.13
2023-05-22T07:06:12.838Z,25.14
2023-05-22T07:07:12.802Z,25.13
2023-05-22T07:08:12.798Z,25.18
2023-05-22T07:09:12.771Z,25.18
2023-05-22T07:10:12.781Z,25.18
2023-05-22T07:11:12.739Z,25.22
2023-05-22T07:12:12.742Z,25.18
2023-05-22T07:13:12.760Z,25.21
2023-05-22T07:14:12.796Z,25.21
2023-05-22T07:15:12.711Z,25.22
2023-05-22T07:16:13.552Z,25.24
2023-05-22T07:17:12.683Z,25.22
2023-05-22T07:18:12.754Z,25.25
2023-05-22T07:19:12.670Z,25.24
2023-05-22T07:20:12.652Z,25.25
2023-05-22T07:21:12.654Z,25.27
2023-05-22T07:22:12.671Z,25.30
2023-05-22T07:23:12.652Z,25.28
2023-05-22T07:24:12.639Z,25.28
2023-05-22T07:25:13.485Z,25.28
2023-05-22T07:26:12.660Z,25.31
2023-05-22T07:27:12.660Z,25.32
2023-05-22T07:28:12.666Z,25.32
2023-05-22T07:29:12.647Z,25.32
2023-05-22T07:30:12.669Z,25.30
2023-05-22T07:31:12.684Z,25.34
2023-05-22T07:32:12.704Z,25.34
2023-05-22T07:33:12.756Z,25.34
2023-05-22T07:34:12.677Z,25.34
2023-05-22T07:35:12.858Z,25.35
2023-05-22T07:36:12.615Z,25.35
2023-05-22T07:37:12.636Z,25.37
2023-05-22T07:38:13.001Z,25.35
2023-05-22T07:39:12.562Z,25.38
2023-05-22T07:40:12.623Z,25.38
2023-05-22T07:41:12.518Z,25.41
2023-05-22T07:42:12.568Z,25.41
2023-05-22T07:43:12.501Z,25.39
2023-05-22T07:44:12.485Z,25.42
2023-05-22T07:45:12.482Z,25.41
2023-05-22T07:46:12.518Z,25.42
2023-05-22T07:47:12.436Z,25.41
2023-05-22T07:48:12.480Z,25.42
2023-05-22T07:49:12.412Z,25.41
2023-05-22T07:50:12.390Z,25.44
2023-05-22T07:51:12.485Z,25.42
2023-05-22T07:52:12.395Z,25.42
2023-05-22T07:53:12.360Z,25.45
2023-05-22T07:54:12.329Z,25.44
2023-05-22T07:55:12.343Z,25.45
2023-05-22T07:56:12.302Z,25.45
2023-05-22T07:57:12.278Z,25.44
2023-05-22T07:58:12.261Z,25.45
2023-05-22T07:59:12.246Z,25.46
2023-05-22T08:00:12.371Z,25.46
2023-05-22T08:01:12.215Z,25.45
2023-05-22T08:02:12.287Z,25.46
2023-05-22T08:03:12.434Z,25.48
2023-05-22T08:04:12.218Z,25.46
2023-05-22T08:05:12.422Z,25.46
2023-05-22T08:06:12.109Z,25.48
2023-05-22T08:07:12.280Z,25.48
2023-05-22T08:08:12.111Z,25.48
2023-05-22T08:09:12.058Z,25.48
2023-05-22T08:10:12.025Z,25.52
2023-05-22T08:11:13.011Z,25.49
2023-05-22T08:12:11.981Z,25.49
2023-05-22T08:13:11.988Z,25.49
2023-05-22T08:14:12.036Z,25.50
2023-05-22T08:15:11.935Z,25.52
2023-05-22T08:16:11.966Z,25.52
2023-05-22T08:17:11.943Z,25.52
2023-05-22T08:18:11.972Z,25.53
2023-05-22T08:19:11.960Z,25.52
2023-05-22T08:20:12.153Z,25.50
2023-05-22T08:21:11.874Z,25.53
2023-05-22T08:22:11.849Z,25.53
2023-05-22T08:23:11.880Z,25.52
2023-05-22T08:24:11.790Z,25.52
2023-05-22T08:25:11.783Z,25.55
2023-05-22T08:26:11.768Z,25.53
2023-05-22T08:27:11.735Z,25.56
2023-05-22T08:28:11.748Z,25.58
2023-05-22T08:29:11.708Z,25.55
2023-05-22T08:30:11.709Z,25.56
2023-05-22T08:31:11.812Z,25.56
2023-05-22T08:32:11.750Z,25.59
2023-05-22T08:33:11.864Z,25.59
2023-05-22T08:34:11.785Z,25.58
2023-05-22T08:35:11.857Z,25.56
2023-05-22T08:36:11.921Z,25.59
2023-05-22T08:37:11.796Z,25.56
2023-05-22T08:38:11.829Z,25.58
2023-05-22T08:39:11.875Z,25.55
2023-05-22T08:40:11.787Z,25.56
2023-05-22T08:41:11.764Z,25.55
2023-05-22T08:42:11.762Z,25.53
2023-05-22T08:43:11.741Z,25.52
2023-05-22T08:44:11.813Z,25.52
2023-05-22T08:45:11.715Z,25.50
2023-05-22T08:46:11.711Z,25.48
2023-05-22T08:47:11.736Z,25.50
2023-05-22T08:48:12.040Z,25.48
2023-05-22T08:49:11.645Z,25.46
2023-05-22T08:50:12.537Z,25.45
2023-05-22T08:51:11.697Z,25.42
2023-05-22T08:52:11.668Z,25.45
2023-05-22T08:53:11.641Z,25.45
2023-05-22T08:54:11.611Z,25.44
2023-05-22T08:55:11.636Z,25.44
2023-05-22T08:56:11.570Z,25.44
2023-05-22T08:57:11.545Z,25.42
2023-05-22T08:58:11.550Z,25.41
2023-05-22T08:59:11.516Z,25.39
2023-05-22T09:00:11.497Z,25.44
2023-05-22T09:01:11.504Z,25.41
2023-05-22T09:02:11.476Z,25.39
2023-05-22T09:03:11.740Z,25.37
2023-05-22T09:04:11.578Z,25.39
2023-05-22T09:05:11.488Z,25.38
2023-05-22T09:06:11.523Z,25.37
2023-05-22T09:07:11.538Z,25.39
2023-05-22T09:08:19.841Z,25.37
2023-05-22T09:09:12.483Z,25.37
2023-05-22T09:10:11.437Z,25.38
2023-05-22T09:11:12.069Z,25.35
2023-05-22T09:12:11.496Z,25.37
2023-05-22T09:13:11.449Z,25.35
2023-05-22T09:14:11.380Z,25.35
2023-05-22T09:15:11.406Z,25.35
2023-05-22T09:16:11.348Z,25.35
2023-05-22T09:17:11.579Z,25.37
2023-05-22T09:18:11.365Z,25.32
2023-05-22T09:19:11.410Z,25.34
2023-05-22T09:20:11.285Z,25.34
2023-05-22T09:21:25.955Z,25.35
2023-05-22T09:22:12.245Z,25.32
2023-05-22T09:23:11.258Z,25.34
2023-05-22T09:24:11.217Z,25.32
2023-05-22T09:25:11.190Z,25.31
2023-05-22T09:26:11.211Z,25.31
2023-05-22T09:27:11.236Z,25.31
2023-05-22T09:28:11.181Z,25.34
2023-05-22T09:29:11.153Z,25.34
2023-05-22T09:30:11.132Z,25.31
2023-05-22T09:31:11.238Z,25.31
2023-05-22T09:32:11.102Z,25.32
2023-05-22T09:33:11.148Z,25.32
2023-05-22T09:34:11.113Z,25.32
2023-05-22T09:35:11.076Z,25.30
2023-05-22T09:36:11.107Z,25.30
2023-05-22T09:37:11.049Z,25.31
2023-05-22T09:39:11.102Z,25.32
2023-05-22T09:40:11.016Z,25.31
2023-05-22T09:41:11.271Z,25.30
2023-05-22T09:42:11.979Z,25.32
2023-05-22T09:43:11.053Z,25.31
2023-05-22T09:44:10.987Z,25.32
2023-05-22T09:45:10.938Z,25.34
2023-05-22T09:46:10.964Z,25.32
2023-05-22T09:47:10.979Z,25.35
2023-05-22T09:48:10.900Z,25.35
2023-05-22T09:49:13.253Z,25.35
2023-05-22T09:50:10.894Z,25.35
2023-05-22T09:51:10.870Z,25.37
2023-05-22T09:52:10.880Z,25.41
2023-05-22T09:53:10.873Z,25.39
2023-05-22T09:54:10.825Z,25.42
2023-05-22T09:55:10.776Z,25.44
2023-05-22T09:56:10.742Z,25.45
2023-05-22T09:57:10.744Z,25.45
2023-05-22T09:58:10.736Z,25.48
2023-05-22T09:59:10.700Z,25.48
2023-05-22T10:00:10.684Z,25.48
2023-05-22T10:01:10.685Z,25.49
2023-05-22T10:02:10.750Z,25.49
2023-05-22T10:03:10.706Z,25.50
2023-05-22T10:04:10.629Z,25.50
2023-05-22T10:05:10.622Z,25.52
2023-05-22T10:06:10.694Z,25.55
2023-05-22T10:07:10.591Z,25.53
2023-05-22T10:08:10.516Z,25.56
2023-05-22T10:09:10.482Z,25.56
2023-05-22T10:10:10.465Z,25.59
2023-05-22T10:11:10.458Z,25.58
2023-05-22T10:12:10.444Z,25.62
2023-05-22T10:13:10.402Z,25.62
2023-05-22T10:14:10.374Z,25.70
2023-05-22T10:15:10.448Z,25.75
2023-05-22T10:16:10.372Z,25.77
2023-05-22T10:17:10.299Z,25.77
2023-05-22T10:18:10.343Z,25.83
2023-05-22T10:19:10.282Z,25.84
2023-05-22T10:20:10.232Z,25.84
2023-05-22T10:21:11.056Z,25.87
2023-05-22T10:22:10.218Z,25.84
2023-05-22T10:23:10.432Z,25.84
2023-05-22T10:24:10.252Z,25.87
2023-05-22T10:25:10.837Z,25.91
2023-05-22T10:26:10.132Z,25.94
2023-05-22T10:27:10.146Z,25.96
2023-05-22T10:28:10.185Z,25.98
2023-05-22T10:29:10.241Z,25.98
2023-05-22T10:30:10.333Z,26.00
2023-05-22T10:31:10.400Z,26.00
2023-05-22T10:32:10.329Z,26.01
2023-05-22T10:33:10.536Z,26.05
2023-05-22T10:34:10.551Z,26.04
2023-05-22T10:35:10.518Z,26.07
2023-05-22T10:36:10.487Z,26.07
2023-05-22T10:37:17.025Z,26.07
2023-05-22T10:38:11.522Z,26.08
2023-05-22T10:39:10.458Z,26.09
2023-05-22T10:40:10.452Z,26.13
2023-05-22T10:41:10.433Z,26.11
2023-05-22T10:42:10.402Z,26.13
2023-05-22T10:43:10.376Z,26.13
2023-05-22T10:44:10.341Z,26.09
2023-05-22T10:45:10.336Z,26.09
2023-05-22T10:46:10.379Z,26.11
2023-05-22T10:47:10.364Z,26.08
2023-05-22T10:48:10.371Z,26.07
2023-05-22T10:49:10.282Z,26.05
2023-05-22T10:50:10.199Z,26.07
2023-05-22T10:51:10.179Z,26.05
2023-05-22T10:52:10.187Z,26.04
2023-05-22T10:53:10.152Z,26.03
2023-05-22T10:54:10.121Z,26.05
2023-05-22T10:55:10.127Z,26.03
2023-05-22T10:56:10.119Z,26.04
2023-05-22T10:57:10.175Z,26.03
2023-05-22T10:58:10.569Z,26.01
2023-05-22T10:59:10.214Z,25.98
2023-05-22T11:00:10.477Z,25.97
2023-05-22T11:01:10.372Z,25.96
2023-05-22T11:02:11.569Z,25.98
2023-05-22T11:03:17.769Z,25.96
2023-05-22T11:04:11.273Z,25.97
2023-05-22T11:05:10.344Z,25.96
2023-05-22T11:06:10.209Z,25.97
2023-05-22T11:07:10.179Z,25.94
2023-05-22T11:08:10.179Z,25.96
2023-05-22T11:09:10.142Z,25.90
2023-05-22T11:10:10.113Z,25.90
2023-05-22T11:11:10.100Z,25.89
2023-05-22T11:12:10.088Z,25.87
2023-05-22T11:13:10.086Z,25.89
2023-05-22T11:14:10.052Z,25.86
2023-05-22T11:15:10.054Z,25.83
2023-05-22T11:16:10.043Z,25.83
2023-05-22T11:17:10.060Z,25.83
2023-05-22T11:18:10.110Z,25.81
2023-05-22T11:19:22.812Z,25.81
2023-05-22T11:20:11.064Z,25.83
2023-05-22T11:21:09.985Z,25.81
2023-05-22T11:22:09.954Z,25.83
2023-05-22T11:23:09.928Z,25.83
2023-05-22T11:24:09.893Z,25.81
2023-05-22T11:25:09.925Z,25.80
2023-05-22T11:26:09.867Z,25.80
2023-05-22T11:27:09.831Z,25.79
2023-05-22T11:28:09.901Z,25.79
2023-05-22T11:29:09.808Z,25.79
2023-05-22T11:30:09.794Z,25.77
2023-05-22T11:31:09.810Z,25.79
2023-05-22T11:32:09.764Z,25.81
2023-05-22T11:33:09.780Z,25.80
2023-05-22T11:34:09.771Z,25.81
2023-05-22T11:35:09.884Z,25.79
2023-05-22T11:36:09.767Z,25.81
2023-05-22T11:37:09.770Z,25.80
2023-05-22T11:38:09.818Z,25.79
2023-05-22T11:39:09.807Z,25.76
2023-05-22T11:40:09.825Z,25.76
2023-05-22T11:41:09.823Z,25.75
2023-05-22T11:42:09.812Z,25.75
2023-05-22T11:43:09.782Z,25.75
2023-05-22T11:44:09.745Z,25.72
2023-05-22T11:45:09.721Z,25.72
2023-05-22T11:46:09.734Z,25.72
2023-05-22T11:47:09.695Z,25.70
2023-05-22T11:48:09.727Z,25.72
2023-05-22T11:49:09.657Z,25.69
2023-05-22T11:50:09.643Z,25.72
2023-05-22T11:51:09.722Z,25.75
2023-05-22T11:52:09.597Z,25.69
2023-05-22T11:53:09.607Z,25.70
2023-05-22T11:54:09.568Z,25.68
2023-05-22T11:55:09.546Z,25.69
2023-05-22T11:56:09.539Z,25.68
2023-05-22T11:57:09.563Z,25.68
2023-05-22T11:58:09.490Z,25.68
2023-05-22T11:59:09.506Z,25.66
2023-05-22T12:00:09.462Z,25.66
2023-05-22T12:01:09.437Z,25.66
2023-05-22T12:02:09.405Z,25.66
2023-05-22T12:03:09.460Z,25.63
2023-05-22T12:04:09.448Z,25.65
2023-05-22T12:05:09.405Z,25.66
2023-05-22T12:06:09.382Z,25.68
2023-05-22T12:07:09.436Z,25.68
2023-05-22T12:08:09.370Z,25.69
2023-05-22T12:09:09.324Z,25.69
2023-05-22T12:10:09.286Z,25.69
2023-05-22T12:11:09.270Z,25.72
2023-05-22T12:12:09.243Z,25.70
2023-05-22T12:13:09.220Z,25.72
2023-05-22T12:14:09.220Z,25.73
2023-05-22T12:15:09.185Z,25.73
2023-05-22T12:16:09.188Z,25.73
2023-05-22T12:17:09.163Z,25.73
2023-05-22T12:18:09.205Z,25.72
2023-05-22T12:19:09.245Z,25.68
2023-05-22T12:20:09.057Z,25.69
2023-05-22T12:21:09.069Z,25.66
2023-05-22T12:22:09.019Z,25.68
2023-05-22T12:23:09.132Z,25.66
2023-05-22T12:24:08.975Z,25.66
2023-05-22T12:25:08.937Z,25.69
2023-05-22T12:26:08.923Z,25.69
2023-05-22T12:27:08.914Z,25.72
2023-05-22T12:28:08.909Z,25.70
2023-05-22T12:29:08.855Z,25.70
2023-05-22T12:30:08.827Z,25.75
2023-05-22T12:31:08.798Z,25.72
2023-05-22T12:32:08.841Z,25.72
2023-05-22T12:33:08.813Z,25.69
2023-05-22T12:34:08.763Z,25.70
2023-05-22T12:35:08.722Z,25.72
2023-05-22T12:36:08.708Z,25.72
2023-05-22T12:37:08.693Z,25.75
2023-05-22T12:38:08.662Z,25.76
2023-05-22T12:39:08.696Z,25.75
2023-05-22T12:40:08.641Z,25.75
2023-05-22T12:41:08.654Z,25.75
2023-05-22T12:42:08.702Z,25.76
2023-05-22T12:43:08.589Z,25.77
2023-05-22T12:44:08.572Z,25.76
2023-05-22T12:45:08.556Z,25.79
2023-05-22T12:46:08.578Z,25.77
2023-05-22T12:47:08.542Z,25.79
2023-05-22T12:48:08.590Z,25.77
2023-05-22T12:49:08.605Z,25.80
2023-05-22T12:50:08.573Z,25.81
2023-05-22T12:51:08.607Z,25.77
2023-05-22T12:52:08.597Z,25.76
2023-05-22T12:53:08.598Z,25.76